createdAt,value
2023-06-23T00:01:56.217Z,32.53
2023-06-23T00:04:25.348Z,26.63
2023-06-23T00:06:55.299Z,28.60
2023-06-23T00:09:23.921Z,23.93
2023-06-23T00:11:53.873Z,25.07
2023-06-23T00:14:23.008Z,27.43
2023-06-23T00:16:52.530Z,20.50
2023-06-23T00:19:21.155Z,20.63
2023-06-23T00:21:49.682Z,20.87
2023-06-23T00:24:19.729Z,29.40
2023-06-23T00:26:48.513Z,18.47
2023-06-23T00:29:17.088Z,16.70
2023-06-23T00:31:45.927Z,17.93
2023-06-23T00:34:14.512Z,16.70
2023-06-23T00:36:42.960Z,19.73
2023-06-23T00:39:11.702Z,15.93
2023-06-23T00:41:41.554Z,16.13
2023-06-23T00:44:10.484Z,14.63
2023-06-23T00:46:40.431Z,17.43
2023-06-23T00:49:09.084Z,18.83
2023-06-23T00:51:38.211Z,17.33
2023-06-23T00:54:06.895Z,21.47
2023-06-23T00:56:37.028Z,16.50
2023-06-23T00:59:07.109Z,20.77
2023-06-23T01:01:35.574Z,13.37
2023-06-23T01:04:05.077Z,20.63
2023-06-23T01:06:42.526Z,18.33
2023-06-23T01:09:19.251Z,17.87
2023-06-23T01:11:58.358Z,16.47
2023-06-23T01:14:36.992Z,15.37
2023-06-23T01:17:12.059Z,15.27
2023-06-23T01:19:55.133Z,21.27
2023-06-23T01:22:34.814Z,18.97
2023-06-23T01:25:18.454Z,18.27
2023-06-23T01:28:19.963Z,19.37
2023-06-23T01:30:54.866Z,19.60
2023-06-23T01:33:29.052Z,18.00
2023-06-23T01:36:06.241Z,15.93
2023-06-23T01:38:38.156Z,17.83
2023-06-23T01:41:12.051Z,20.00
2023-06-23T01:43:44.600Z,16.77
2023-06-23T01:46:26.830Z,17.07
2023-06-23T01:49:00.313Z,18.93
2023-06-23T01:51:31.344Z,22.17
2023-06-23T01:54:01.545Z,18.47
2023-06-23T01:56:30.779Z,21.63
2023-06-23T01:59:01.971Z,21.00
2023-06-23T02:01:34.558Z,24.13
2023-06-23T02:04:05.854Z,25.60
2023-06-23T02:06:37.060Z,22.03
2023-06-23T02:09:08.962Z,20.60
2023-06-23T02:11:39.086Z,23.87
2023-06-23T02:14:09.870Z,21.43
2023-06-23T02:16:41.816Z,21.60
2023-06-23T02:19:12.060Z,24.53
2023-06-23T02:21:41.397Z,23.47
2023-06-23T02:24:10.860Z,23.13
2023-06-23T02:26:42.974Z,23.30
2023-06-23T02:29:12.790Z,26.73
2023-06-23T02:31:43.272Z,26.73
2023-06-23T02:34:12.180Z,28.13
2023-06-23T02:36:47.087Z,26.40
2023-06-23T02:39:20.387Z,25.40
2023-06-23T02:41:56.301Z,27.80
2023-06-23T02:44:31.630Z,28.23
2023-06-23T02:47:04.526Z,32.20
2023-06-23T02:49:34.519Z,30.93
2023-06-23T02:52:04.971Z,31.50
2023-06-23T02:54:40.624Z,31.17
2023-06-23T02:57:14.499Z,38.13
2023-06-23T02:59:44.718Z,33.27
2023-06-23T03:02:18.360Z,38.60
2023-06-23T03:04:47.548Z,36.10
2023-06-23T03:07:17.292Z,39.03
2023-06-23T03:09:46.493Z,41.00
2023-06-23T03:12:15.333Z,46.63
2023-06-23T03:14:46.001Z,40.43
2023-06-23T03:17:19.437Z,40.37
2023-06-23T03:19:56.046Z,42.73
2023-06-23T03:22:29.297Z,40.93
2023-06-23T03:25:07.634Z,44.57
2023-06-23T03:27:39.734Z,41.33
2023-06-23T03:30:14.253Z,47.33
2023-06-23T03:32:49.131Z,46.33
2023-06-23T03:35:22.927Z,48.43
2023-06-23T03:38:00.700Z,47.40
2023-06-23T03:40:33.820Z,46.37
2023-06-23T03:43:11.575Z,45.57
2023-06-23T03:45:42.994Z,48.23
2023-06-23T03:48:15.520Z,49.87
2023-06-23T03:50:46.539Z,45.17
2023-06-23T03:53:17.303Z,50.07
2023-06-23T03:55:51.162Z,49.37
2023-06-23T03:58:21.810Z,49.53
2023-06-23T04:00:53.107Z,50.63
2023-06-23T04:03:25.722Z,54.63
2023-06-23T04:05:57.149Z,46.30
2023-06-23T04:08:27.550Z,47.23
2023-06-23T04:11:00.283Z,51.60
2023-06-23T04:13:31.174Z,51.60
2023-06-23T04:16:01.968Z,51.07
2023-06-23T04:18:34.110Z,56.67
2023-06-23T04:21:05.795Z,51.93
2023-06-23T04:23:36.835Z,54.83
2023-06-23T04:26:08.446Z,55.00
2023-06-23T04:28:38.051Z,51.33
2023-06-23T04:31:09.925Z,49.83
2023-06-23T04:33:39.998Z,46.73
2023-06-23T04:36:14.493Z,50.87
2023-06-23T04:38:48.907Z,47.47
2023-06-23T04:41:21.646Z,47.17
2023-06-23T04:43:55.465Z,45.57
2023-06-23T04:46:25.838Z,50.43
2023-06-23T04:48:59.385Z,49.70
2023-06-23T04:51:34.071Z,47.07
2023-06-23T04:54:08.883Z,46.37
2023-06-23T04:56:39.570Z,48.33
2023-06-23T04:59:11.055Z,49.37
2023-06-23T05:01:41.089Z,53.57
2023-06-23T05:04:12.729Z,47.97
2023-06-23T05:06:44.047Z,47.23
2023-06-23T05:09:15.151Z,45.00
2023-06-23T05:11:45.665Z,42.47
2023-06-23T05:14:17.915Z,45.43
2023-06-23T05:16:47.239Z,49.13
2023-06-23T05:19:18.650Z,48.47
2023-06-23T05:21:47.860Z,52.30
2023-06-23T05:24:17.969Z,48.30
2023-06-23T05:26:48.457Z,45.10
2023-06-23T05:29:19.940Z,44.83
2023-06-23T05:31:52.015Z,46.00
2023-06-23T05:34:25.866Z,45.83
2023-06-23T05:36:55.661Z,44.97
2023-06-23T05:39:28.157Z,44.57
2023-06-23T05:41:56.939Z,45.90
2023-06-23T05:44:25.829Z,46.80
2023-06-23T05:46:58.428Z,46.67
2023-06-23T05:49:32.765Z,45.10
2023-06-23T05:52:04.997Z,47.80
2023-06-23T05:54:40.136Z,44.13
2023-06-23T05:57:20.677Z,41.83
2023-06-23T05:59:56.797Z,43.27
2023-06-23T06:02:31.129Z,50.50
2023-06-23T06:05:02.920Z,49.53
2023-06-23T06:07:33.776Z,46.20
2023-06-23T06:10:04.832Z,47.20
2023-06-23T06:12:36.072Z,46.30
2023-06-23T06:15:07.634Z,43.93
2023-06-23T06:17:38.169Z,49.33
2023-06-23T06:20:10.806Z,43.47
2023-06-23T06:22:42.288Z,43.60
2023-06-23T06:25:13.198Z,46.27
2023-06-23T06:27:45.881Z,43.43
2023-06-23T06:30:15.939Z,42.97
2023-06-23T06:32:46.148Z,40.53
2023-06-23T06:35:18.479Z,44.07
2023-06-23T06:37:49.847Z,39.53
2023-06-23T06:40:24.740Z,41.47
2023-06-23T06:42:53.412Z,40.23
2023-06-23T06:45:22.074Z,51.47
2023-06-23T06:47:51.942Z,36.37
2023-06-23T06:50:23.036Z,40.83
2023-06-23T06:52:52.775Z,36.87
2023-06-23T06:55:23.639Z,38.47
2023-06-23T06:57:52.781Z,34.43
2023-06-23T07:00:25.720Z,34.73
2023-06-23T07:02:57.513Z,37.70
2023-06-23T07:05:27.674Z,42.23
2023-06-23T07:07:56.472Z,38.50
2023-06-23T07:10:24.968Z,33.13
2023-06-23T07:12:53.568Z,31.90
2023-06-23T07:15:22.402Z,29.20
2023-06-23T07:17:51.003Z,28.20
2023-06-23T07:20:19.532Z,31.97
2023-06-23T07:22:49.425Z,27.10
2023-06-23T07:25:18.052Z,28.67
2023-06-23T07:27:49.655Z,31.80
2023-06-23T07:30:18.936Z,29.90
2023-06-23T07:32:47.837Z,28.63
2023-06-23T07:35:16.313Z,27.37
2023-06-23T07:37:44.912Z,28.97
2023-06-23T07:40:15.537Z,25.93
2023-06-23T07:42:44.140Z,24.53
2023-06-23T07:45:13.042Z,29.90
2023-06-23T07:47:41.576Z,22.47
2023-06-23T07:50:10.877Z,27.93
2023-06-23T07:52:39.417Z,27.83
2023-06-23T07:55:08.676Z,26.07
2023-06-23T07:57:38.844Z,24.10
2023-06-23T08:00:09.810Z,23.33
2023-06-23T08:02:43.395Z,23.13
2023-06-23T08:05:12.990Z,23.13
2023-06-23T08:07:41.944Z,23.93
2023-06-23T08:10:11.368Z,22.40
2023-06-23T08:12:42.001Z,21.20
2023-06-23T08:15:11.635Z,19.67
2023-06-23T08:17:40.463Z,19.03
2023-06-23T08:20:10.354Z,18.57
2023-06-23T08:22:41.958Z,17.67
2023-06-23T08:25:11.391Z,17.33
2023-06-23T08:27:41.563Z,17.50
2023-06-23T08:30:11.035Z,16.23
2023-06-23T08:32:39.735Z,16.83
2023-06-23T08:35:10.612Z,15.33
2023-06-23T08:37:41.714Z,16.73
2023-06-23T08:40:11.763Z,20.30
2023-06-23T08:42:42.550Z,18.07
2023-06-23T08:45:14.650Z,18.63
2023-06-23T08:47:48.415Z,14.47
2023-06-23T08:50:17.480Z,20.77
2023-06-23T08:52:46.844Z,20.50
2023-06-23T08:55:15.690Z,19.30
2023-06-23T08:57:45.967Z,19.73
2023-06-23T09:00:15.429Z,17.70
2023-06-23T09:02:44.280Z,16.63
2023-06-23T09:05:14.066Z,19.70
2023-06-23T09:07:43.924Z,26.90
2023-06-23T09:10:14.099Z,19.80
2023-06-23T09:13:11.432Z,16.00
2023-06-23T09:15:55.817Z,14.63
2023-06-23T09:18:31.871Z,13.37
2023-06-23T09:21:03.141Z,13.43
2023-06-23T09:23:33.457Z,15.13
2023-06-23T09:26:05.061Z,13.37
2023-06-23T09:28:37.546Z,11.97
2023-06-23T09:31:12.370Z,11.97
2023-06-23T09:33:49.130Z,15.33
2023-06-23T09:36:21.092Z,14.60
2023-06-23T09:38:53.568Z,16.97
2023-06-23T09:41:22.545Z,16.17
2023-06-23T09:43:53.490Z,15.03
2023-06-23T09:46:23.968Z,14.10
2023-06-23T09:48:53.514Z,16.20
2023-06-23T09:51:22.807Z,16.60
2023-06-23T09:53:52.934Z,16.87
2023-06-23T09:56:23.333Z,16.57
2023-06-23T09:58:53.456Z,14.33
2023-06-23T10:01:23.117Z,9.07
2023-06-23T10:03:56.490Z,10.10
2023-06-23T10:06:27.347Z,12.10
2023-06-23T10:08:57.600Z,13.07
2023-06-23T10:11:34.259Z,11.20
2023-06-23T10:14:07.535Z,12.70
2023-06-23T10:16:36.972Z,11.27
2023-06-23T10:19:06.242Z,12.83
2023-06-23T10:21:35.468Z,13.87
2023-06-23T10:24:06.387Z,18.20
2023-06-23T10:26:36.394Z,18.07
2023-06-23T10:29:08.603Z,11.70
2023-06-23T10:31:38.293Z,10.40
2023-06-23T10:34:08.793Z,10.73
2023-06-23T10:36:42.640Z,13.97
2023-06-23T10:39:13.347Z,10.97
2023-06-23T10:41:47.215Z,11.23
2023-06-23T10:44:18.070Z,12.43
2023-06-23T10:46:47.358Z,10.70
2023-06-23T10:49:21.219Z,10.90
2023-06-23T10:51:51.941Z,8.73
2023-06-23T10:54:28.699Z,6.47
2023-06-23T10:56:57.704Z,7.57
2023-06-23T10:59:30.056Z,13.33
2023-06-23T11:02:20.424Z,11.00
2023-06-23T11:04:57.803Z,10.73
2023-06-23T11:07:27.854Z,8.60
2023-06-23T11:10:07.474Z,7.03
2023-06-23T11:12:44.450Z,8.37
2023-06-23T11:15:29.449Z,6.73
2023-06-23T11:18:05.496Z,7.53
2023-06-23T11:20:36.424Z,8.13
2023-06-23T11:23:07.811Z,10.10
2023-06-23T11:25:39.987Z,8.63
2023-06-23T11:28:29.592Z,8.17
2023-06-23T11:31:09.353Z,7.60
2023-06-23T11:33:39.292Z,7.40
2023-06-23T11:36:09.625Z,7.10
2023-06-23T11:38:40.496Z,7.55
2023-06-23T11:41:09.866Z,7.25
2023-06-23T11:43:40.007Z,7.68
2023-06-23T11:46:12.538Z,9.23
2023-06-23T11:48:42.261Z,10.73
2023-06-23T11:51:15.305Z,8.65
2023-06-23T11:53:44.335Z,11.05
2023-06-23T11:56:17.549Z,10.95
2023-06-23T11:58:51.495Z,9.55
2023-06-23T12:01:21.940Z,12.00
2023-06-23T12:03:50.841Z,11.35
2023-06-23T12:06:20.612Z,9.93
2023-06-23T12:08:51.034Z,10.98
2023-06-23T12:11:20.248Z,13.20
2023-06-23T12:13:49.851Z,9.60
2023-06-23T12:16:19.623Z,12.45
2023-06-23T12:18:51.345Z,9.43
2023-06-23T12:21:21.953Z,9.82
2023-06-23T12:23:50.757Z,9.52
2023-06-23T12:26:21.003Z,10.30
2023-06-23T12:28:50.663Z,8.73
2023-06-23T12:31:28.703Z,8.90
2023-06-23T12:34:02.496Z,8.48
2023-06-23T12:36:31.205Z,9.52
2023-06-23T12:39:01.378Z,8.95
2023-06-23T12:41:30.860Z,8.90
2023-06-23T12:44:01.802Z,8.80
2023-06-23T12:46:32.379Z,7.78
2023-06-23T12:49:02.452Z,7.50
2023-06-23T12:51:35.338Z,8.10
2023-06-23T12:54:04.434Z,7.75
2023-06-23T12:56:37.111Z,7.78
2023-06-23T12:59:05.795Z,8.75
2023-06-23T13:01:34.698Z,11.43
2023-06-23T13:04:05.138Z,7.47
2023-06-23T13:06:33.856Z,6.22
2023-06-23T13:09:02.488Z,6.80
2023-06-23T13:11:32.200Z,7.60
2023-06-23T13:14:01.046Z,9.00
2023-06-23T13:16:29.647Z,9.38
2023-06-23T13:18:58.213Z,5.65
2023-06-23T13:21:28.258Z,10.40
2023-06-23T13:23:58.622Z,5.13
2023-06-23T13:26:28.984Z,8.10
2023-06-23T13:28:57.517Z,7.80
2023-06-23T13:31:26.232Z,8.13
2023-06-23T13:33:54.852Z,6.70
2023-06-23T13:36:23.411Z,7.63
2023-06-23T13:38:53.466Z,6.97
2023-06-23T13:41:21.889Z,7.85
2023-06-23T13:43:51.071Z,6.70
2023-06-23T13:46:20.353Z,5.88
2023-06-23T13:48:49.280Z,6.68
2023-06-23T13:51:17.847Z,7.85
2023-06-23T13:53:46.325Z,9.95
2023-06-23T13:56:16.336Z,6.00
2023-06-23T13:58:44.918Z,7.35
2023-06-23T14:01:13.447Z,6.03
2023-06-23T14:03:41.994Z,7.15
2023-06-23T14:06:10.774Z,6.18
2023-06-23T14:08:41.740Z,7.13
2023-06-23T14:11:10.400Z,6.00
2023-06-23T14:13:41.691Z,5.75
2023-06-23T14:16:13.634Z,7.00
2023-06-23T14:18:42.669Z,6.55
2023-06-23T14:21:13.150Z,4.43
2023-06-23T14:23:41.929Z,4.00
2023-06-23T14:26:10.483Z,7.28
2023-06-23T14:28:40.489Z,5.40
2023-06-23T14:31:09.456Z,4.85
2023-06-23T14:33:38.033Z,5.13
2023-06-23T14:36:06.802Z,5.78
2023-06-23T14:38:35.422Z,6.25
2023-06-23T14:41:04.019Z,6.13
2023-06-23T14:43:32.673Z,5.72
2023-06-23T14:46:04.227Z,4.85
2023-06-23T14:48:33.264Z,5.25
2023-06-23T14:51:02.058Z,4.75
2023-06-23T14:53:31.366Z,4.72
2023-06-23T14:56:00.016Z,6.38
2023-06-23T14:58:28.922Z,5.35
2023-06-23T15:00:59.063Z,4.70
2023-06-23T15:03:29.240Z,5.80
2023-06-23T15:05:58.224Z,4.43
2023-06-23T15:08:26.884Z,5.47
2023-06-23T15:10:56.273Z,6.00
2023-06-23T15:13:24.928Z,5.57
2023-06-23T15:15:53.745Z,5.25
2023-06-23T15:18:22.344Z,4.45
2023-06-23T15:20:52.430Z,6.75
2023-06-23T15:23:21.164Z,6.15
2023-06-23T15:25:49.864Z,3.88
2023-06-23T15:28:29.570Z,4.20
2023-06-23T15:30:58.821Z,7.13
2023-06-23T15:33:29.352Z,5.95
2023-06-23T15:36:00.609Z,4.07
2023-06-23T15:38:29.177Z,5.10
2023-06-23T15:40:57.818Z,5.13
2023-06-23T15:43:26.655Z,4.20
2023-06-23T15:45:55.409Z,3.95
2023-06-23T15:48:25.262Z,4.38
2023-06-23T15:50:54.992Z,3.63
2023-06-23T15:53:25.372Z,4.95
2023-06-23T15:55:54.033Z,5.43
2023-06-23T15:58:22.577Z,4.28
2023-06-23T16:00:51.306Z,4.88
2023-06-23T16:03:20.244Z,3.55
2023-06-23T16:05:49.338Z,4.05
2023-06-23T16:08:18.415Z,3.67
2023-06-23T16:10:48.411Z,4.55
2023-06-23T16:13:17.103Z,3.97
2023-06-23T16:15:45.847Z,5.45
2023-06-23T16:18:14.533Z,4.40
2023-06-23T16:20:44.573Z,4.03
2023-06-23T16:23:13.775Z,3.35
2023-06-23T16:25:42.329Z,3.72
2023-06-23T16:28:12.403Z,3.70
2023-06-23T16:30:41.234Z,5.03
2023-06-23T16:33:10.066Z,5.13
2023-06-23T16:35:38.605Z,4.15
2023-06-23T16:38:07.765Z,3.28
2023-06-23T16:40:36.267Z,3.22
2023-06-23T16:43:05.701Z,4.65
2023-06-23T16:45:36.043Z,3.15
2023-06-23T16:48:05.167Z,3.72
2023-06-23T16:50:35.253Z,4.65
2023-06-23T16:53:05.171Z,5.28
2023-06-23T16:55:33.924Z,4.90
2023-06-23T16:58:02.503Z,4.45
2023-06-23T17:00:31.085Z,4.15
2023-06-23T17:03:01.509Z,4.25
2023-06-23T17:05:30.443Z,3.42
2023-06-23T17:07:59.643Z,4.85
2023-06-23T17:10:28.194Z,5.25
2023-06-23T17:12:56.731Z,4.32
2023-06-23T17:15:25.233Z,3.72
2023-06-23T17:17:53.775Z,6.05
2023-06-23T17:20:23.980Z,12.68
2023-06-23T17:22:52.960Z,3.38
2023-06-23T17:25:21.418Z,4.43
2023-06-23T17:27:52.904Z,4.03
2023-06-23T17:30:21.685Z,5.45
2023-06-23T17:32:50.389Z,5.78
2023-06-23T17:35:19.014Z,5.00
2023-06-23T17:37:49.157Z,6.18
2023-06-23T17:40:21.227Z,6.00
2023-06-23T17:42:49.748Z,4.07
2023-06-23T17:45:18.292Z,3.92
2023-06-23T17:47:47.102Z,4.75
2023-06-23T17:50:16.656Z,4.35
2023-06-23T17:52:45.681Z,3.25
2023-06-23T17:55:15.533Z,4.10
2023-06-23T17:57:44.084Z,5.03
2023-06-23T18:00:14.068Z,7.90
2023-06-23T18:02:43.567Z,5.65
2023-06-23T18:05:12.258Z,4.07
2023-06-23T18:07:40.764Z,4.30
2023-06-23T18:10:10.144Z,4.00
2023-06-23T18:12:40.100Z,4.07
2023-06-23T18:15:09.658Z,4.47
2023-06-23T18:17:38.267Z,4.85
2023-06-23T18:20:08.299Z,4.68
2023-06-23T18:22:37.197Z,5.93
2023-06-23T18:25:06.845Z,4.13
2023-06-23T18:27:35.328Z,5.05
2023-06-23T18:30:05.912Z,4.35
2023-06-23T18:32:44.865Z,4.00
2023-06-23T18:35:15.147Z,4.80
2023-06-23T18:37:44.815Z,4.10
2023-06-23T18:40:14.320Z,3.80
2023-06-23T18:42:44.032Z,5.07
2023-06-23T18:45:15.095Z,5.00
2023-06-23T18:47:43.781Z,5.63
2023-06-23T18:50:12.868Z,5.63
2023-06-23T18:52:41.408Z,5.80
2023-06-23T18:55:11.041Z,5.23
2023-06-23T18:57:39.554Z,4.20
2023-06-23T19:00:09.515Z,6.40
2023-06-23T19:02:39.560Z,4.73
2023-06-23T19:05:08.698Z,4.73
2023-06-23T19:07:37.338Z,7.63
2023-06-23T19:10:06.519Z,7.27
2023-06-23T19:12:35.327Z,4.27
2023-06-23T19:15:03.955Z,10.33
2023-06-23T19:17:33.039Z,5.90
2023-06-23T19:20:05.362Z,9.27
2023-06-23T19:22:34.551Z,5.53
2023-06-23T19:25:03.280Z,11.47
2023-06-23T19:27:31.888Z,6.97
2023-06-23T19:30:00.671Z,5.93
2023-06-23T19:32:30.169Z,6.67
2023-06-23T19:34:58.800Z,4.87
2023-06-23T19:37:28.965Z,6.37
2023-06-23T19:40:00.602Z,7.20
2023-06-23T19:42:30.124Z,5.67
2023-06-23T19:44:58.632Z,6.13
2023-06-23T19:47:27.246Z,7.13
2023-06-23T19:49:55.881Z,5.30
2023-06-23T19:52:26.624Z,7.23
2023-06-23T19:54:57.531Z,5.90
2023-06-23T19:57:26.235Z,6.53
2023-06-23T19:59:54.960Z,7.77
2023-06-23T20:02:23.959Z,7.33
2023-06-23T20:04:52.955Z,9.10
2023-06-23T20:07:22.125Z,6.87
2023-06-23T20:09:50.828Z,7.13
2023-06-23T20:12:20.773Z,7.23
2023-06-23T20:14:52.113Z,5.60
2023-06-23T20:17:20.968Z,6.40
2023-06-23T20:19:50.108Z,5.63
2023-06-23T20:22:19.293Z,6.00
2023-06-23T20:24:47.922Z,7.77
2023-06-23T20:27:16.614Z,6.47
2023-06-23T20:29:47.111Z,8.17
2023-06-23T20:32:16.494Z,12.67
2023-06-23T20:34:46.666Z,7.00
2023-06-23T20:37:15.526Z,6.13
2023-06-23T20:39:44.339Z,7.00
2023-06-23T20:42:12.940Z,7.47
2023-06-23T20:44:41.738Z,7.43
2023-06-23T20:47:13.453Z,6.23
2023-06-23T20:49:42.166Z,7.70
2023-06-23T20:52:11.210Z,6.97
2023-06-23T20:54:39.867Z,9.50
2023-06-23T20:57:08.514Z,9.60
2023-06-23T20:59:37.442Z,8.07
2023-06-23T21:02:07.720Z,7.20
2023-06-23T21:04:39.322Z,11.20
2023-06-23T21:07:09.221Z,9.73
2023-06-23T21:09:38.089Z,6.70
2023-06-23T21:12:09.807Z,8.17
2023-06-23T21:14:40.836Z,7.30
2023-06-23T21:17:13.123Z,9.10
2023-06-23T21:19:43.096Z,8.90
2023-06-23T21:22:11.747Z,5.90
2023-06-23T21:24:40.402Z,7.70
2023-06-23T21:27:09.556Z,6.67
2023-06-23T21:29:38.191Z,11.73
2023-06-23T21:32:08.523Z,6.80
2023-06-23T21:34:37.052Z,9.53
2023-06-23T21:37:07.841Z,8.70
2023-06-23T21:39:36.340Z,8.97
2023-06-23T21:42:05.037Z,7.83
2023-06-23T21:44:33.527Z,7.43
2023-06-23T21:47:02.232Z,9.43
2023-06-23T21:49:30.816Z,9.77
2023-06-23T21:52:00.331Z,9.30
2023-06-23T21:54:30.272Z,7.27
2023-06-23T21:56:59.601Z,9.80
2023-06-23T21:59:28.136Z,8.13
2023-06-23T22:01:56.743Z,12.50
2023-06-23T22:04:25.295Z,10.60
2023-06-23T22:06:54.022Z,10.47
2023-06-23T22:09:22.588Z,14.63
2023-06-23T22:11:54.222Z,10.83
2023-06-23T22:14:26.290Z,8.57
2023-06-23T22:16:55.793Z,8.10
2023-06-23T22:19:25.156Z,9.33
2023-06-23T22:21:54.141Z,8.47
2023-06-23T22:24:22.725Z,11.53
2023-06-23T22:26:52.644Z,9.77
2023-06-23T22:29:21.140Z,9.10
2023-06-23T22:31:49.760Z,8.67
2023-06-23T22:34:18.404Z,7.90
2023-06-23T22:36:47.276Z,10.20
2023-06-23T22:39:15.785Z,7.80
2023-06-23T22:41:44.541Z,8.17
2023-06-23T22:44:14.481Z,12.87
2023-06-23T22:46:42.996Z,8.27
2023-06-23T22:49:11.581Z,15.43
2023-06-23T22:51:40.466Z,9.03
2023-06-23T22:54:08.966Z,9.33
2023-06-23T22:56:37.407Z,12.83
2023-06-23T22:59:06.196Z,10.60
2023-06-23T23:01:36.197Z,9.60
2023-06-23T23:04:04.792Z,9.73
2023-06-23T23:06:33.492Z,8.97
2023-06-23T23:09:01.977Z,8.63
2023-06-23T23:11:30.851Z,9.13
2023-06-23T23:13:59.978Z,13.57
2023-06-23T23:16:28.435Z,11.13
2023-06-23T23:18:58.481Z,10.60
2023-06-23T23:21:27.860Z,10.10
2023-06-23T23:23:56.408Z,9.97
2023-06-23T23:26:25.473Z,9.57
2023-06-23T23:28:54.957Z,10.60
2023-06-23T23:31:25.437Z,8.53
2023-06-23T23:33:55.535Z,9.10
2023-06-23T23:36:26.206Z,9.97
2023-06-23T23:38:54.872Z,9.73
2023-06-23T23:41:23.546Z,8.47
2023-06-23T23:43:54.346Z,7.40
2023-06-23T23:46:23.053Z,12.27
2023-06-23T23:48:52.378Z,10.93
2023-06-23T23:51:20.867Z,10.67
2023-06-23T23:53:50.827Z,10.67
2023-06-23T23:56:19.328Z,13.73
2023-06-23T23:58:48.081Z,10.67
